sensor_id;sensor_type;location;lat;lon;timestamp;pressure;altitude;pressure_sealevel;temperature;humidity
2397;BME280;1209;48.410;9.054;2023-01-26T00:00:58;96696.25;;;0.90;100.00
2397;BME280;1209;48.410;9.054;2023-01-26T00:03:24;96691.66;;;0.96;100.00
2397;BME280;1209;48.410;9.054;2023-01-26T00:05:50;96694.00;;;0.99;100.00
2397;BME280;1209;48.410;9.054;2023-01-26T00:08:15;96692.53;;;0.94;100.00
2397;BME280;1209;48.410;9.054;2023-01-26T00:10:41;96689.56;;;0.88;100.00
2397;BME280;1209;48.410;9.054;2023-01-26T00:13:15;96681.16;;;0.60;100.00
2397;BME280;1209;48.410;9.054;2023-01-26T00:15:41;96680.25;;;0.61;100.00
2397;BME280;1209;48.410;9.054;2023-01-26T00:18:08;96676.53;;;0.78;100.00
2397;BME280;1209;48.410;9.054;2023-01-26T00:20:33;96669.22;;;0.85;100.00
2397;BME280;1209;48.410;9.054;2023-01-26T00:23:00;96665.28;;;0.92;100.00
2397;BME280;1209;48.410;9.054;2023-01-26T00:25:25;96653.97;;;0.94;100.00
2397;BME280;1209;48.410;9.054;2023-01-26T00:27:50;96659.66;;;0.87;100.00
2397;BME280;1209;48.410;9.054;2023-01-26T00:30:16;96662.63;;;0.93;100.00
2397;BME280;1209;48.410;9.054;2023-01-26T00:32:41;96663.78;;;0.77;100.00
2397;BME280;1209;48.410;9.054;2023-01-26T00:35:07;96654.97;;;0.68;100.00
2397;BME280;1209;48.410;9.054;2023-01-26T00:37:32;96653.09;;;0.70;100.00
2397;BME280;1209;48.410;9.054;2023-01-26T00:39:58;96651.16;;;0.74;100.00
2397;BME280;1209;48.410;9.054;2023-01-26T00:42:23;96644.69;;;0.55;100.00
2397;BME280;1209;48.410;9.054;2023-01-26T00:44:49;96636.34;;;0.65;100.00
2397;BME280;1209;48.410;9.054;2023-01-26T00:47:14;96639.13;;;0.36;100.00
2397;BME280;1209;48.410;9.054;2023-01-26T00:49:39;96637.38;;;0.37;100.00
2397;BME280;1209;48.410;9.054;2023-01-26T00:52:05;96629.06;;;0.33;100.00
2397;BME280;1209;48.410;9.054;2023-01-26T00:54:31;96625.75;;;0.44;100.00
2397;BME280;1209;48.410;9.054;2023-01-26T00:56:56;96621.03;;;0.63;100.00
2397;BME280;1209;48.410;9.054;2023-01-26T00:59:22;96617.44;;;0.40;100.00
2397;BME280;1209;48.410;9.054;2023-01-26T01:01:48;96615.59;;;0.29;100.00
2397;BME280;1209;48.410;9.054;2023-01-26T01:04:15;96604.13;;;0.48;100.00
2397;BME280;1209;48.410;9.054;2023-01-26T01:06:41;96603.06;;;0.63;100.00
2397;BME280;1209;48.410;9.054;2023-01-26T01:09:06;96608.28;;;0.74;100.00
2397;BME280;1209;48.410;9.054;2023-01-26T01:11:31;96612.50;;;0.75;100.00
2397;BME280;1209;48.410;9.054;2023-01-26T01:13:57;96603.06;;;0.63;100.00
2397;BME280;1209;48.410;9.054;2023-01-26T01:16:22;96596.75;;;0.80;100.00
2397;BME280;1209;48.410;9.054;2023-01-26T01:18:52;96599.31;;;0.80;100.00
2397;BME280;1209;48.410;9.054;2023-01-26T01:21:19;96603.00;;;0.88;100.00
2397;BME280;1209;48.410;9.054;2023-01-26T01:23:45;96601.56;;;0.84;100.00
2397;BME280;1209;48.410;9.054;2023-01-26T01:26:12;96600.91;;;0.93;100.00
2397;BME280;1209;48.410;9.054;2023-01-26T01:28:38;96600.31;;;0.90;100.00
2397;BME280;1209;48.410;9.054;2023-01-26T01:31:09;96594.19;;;0.80;100.00
2397;BME280;1209;48.410;9.054;2023-01-26T01:33:35;96597.00;;;0.64;100.00
2397;BME280;1209;48.410;9.054;2023-01-26T01:36:06;96595.03;;;0.68;100.00
2397;BME280;1209;48.410;9.054;2023-01-26T01:38:33;96592.69;;;0.65;100.00
2397;BME280;1209;48.410;9.054;2023-01-26T01:40:59;96594.50;;;0.75;100.00
2397;BME280;1209;48.410;9.054;2023-01-26T01:43:25;96597.59;;;0.68;100.00
2397;BME280;1209;48.410;9.054;2023-01-26T01:45:51;96597.00;;;0.64;100.00
2397;BME280;1209;48.410;9.054;2023-01-26T01:48:46;96597.72;;;0.53;100.00
2397;BME280;1209;48.410;9.054;2023-01-26T01:51:17;96587.00;;;0.72;100.00
2397;BME280;1209;48.410;9.054;2023-01-26T01:53:46;96587.41;;;0.79;100.00
2397;BME280;1209;48.410;9.054;2023-01-26T01:56:20;96587.53;;;0.65;100.00
2397;BME280;1209;48.410;9.054;2023-01-26T01:58:50;96584.53;;;0.71;100.00
2397;BME280;1209;48.410;9.054;2023-01-26T02:01:17;96587.56;;;0.39;100.00
2397;BME280;1209;48.410;9.054;2023-01-26T02:03:43;96578.63;;;0.57;100.00
2397;BME280;1209;48.410;9.054;2023-01-26T02:06:14;96579.41;;;0.71;100.00
2397;BME280;1209;48.410;9.054;2023-01-26T02:08:44;96579.03;;;0.26;100.00
2397;BME280;1209;48.410;9.054;2023-01-26T02:11:13;96579.88;;;0.26;100.00
2397;BME280;1209;48.410;9.054;2023-01-26T02:13:41;96578.81;;;0.42;100.00
2397;BME280;1209;48.410;9.054;2023-01-26T02:16:07;96572.56;;;0.33;100.00
2397;BME280;1209;48.410;9.054;2023-01-26T02:18:32;96574.41;;;0.56;100.00
2397;BME280;1209;48.410;9.054;2023-01-26T02:21:09;96566.78;;;0.42;100.00
2397;BME280;1209;48.410;9.054;2023-01-26T02:26:25;96558.97;;;0.44;100.00
2397;BME280;1209;48.410;9.054;2023-01-26T02:28:51;96554.66;;;0.57;100.00
2397;BME280;1209;48.410;9.054;2023-01-26T02:31:17;96549.31;;;0.47;100.00
2397;BME280;1209;48.410;9.054;2023-01-26T02:33:42;96548.59;;;0.45;100.00
2397;BME280;1209;48.410;9.054;2023-01-26T02:36:18;96548.91;;;0.53;100.00
2397;BME280;1209;48.410;9.054;2023-01-26T02:41:21;96551.63;;;0.76;100.00
2397;BME280;1209;48.410;9.054;2023-01-26T02:44:07;96552.06;;;0.70;100.00
2397;BME280;1209;48.410;9.054;2023-01-26T02:46:33;96543.50;;;0.82;100.00
2397;BME280;1209;48.410;9.054;2023-01-26T02:48:59;96539.94;;;0.72;100.00
2397;BME280;1209;48.410;9.054;2023-01-26T02:51:42;96538.84;;;0.87;100.00
2397;BME280;1209;48.410;9.054;2023-01-26T02:54:08;96538.44;;;0.44;100.00
2397;BME280;1209;48.410;9.054;2023-01-26T02:56:33;96547.69;;;0.34;100.00
2397;BME280;1209;48.410;9.054;2023-01-26T02:59:04;96541.81;;;0.44;100.00
2397;BME280;1209;48.410;9.054;2023-01-26T03:01:29;96539.34;;;0.55;100.00
2397;BME280;1209;48.410;9.054;2023-01-26T03:03:55;96531.34;;;0.47;100.00
2397;BME280;1209;48.410;9.054;2023-01-26T03:06:20;96533.78;;;0.61;100.00
2397;BME280;1209;48.410;9.054;2023-01-26T03:08:45;96530.72;;;0.44;100.00
2397;BME280;1209;48.410;9.054;2023-01-26T03:11:10;96529.50;;;0.49;100.00
2397;BME280;1209;48.410;9.054;2023-01-26T03:13:36;96535.97;;;0.55;100.00
2397;BME280;1209;48.410;9.054;2023-01-26T03:16:05;96527.88;;;0.36;100.00
2397;BME280;1209;48.410;9.054;2023-01-26T03:18:32;96530.22;;;0.39;100.00
2397;BME280;1209;48.410;9.054;2023-01-26T03:21:16;96520.03;;;0.62;100.00
2397;BME280;1209;48.410;9.054;2023-01-26T03:24:00;96519.03;;;0.76;100.00
2397;BME280;1209;48.410;9.054;2023-01-26T03:26:44;96517.69;;;0.83;100.00
2397;BME280;1209;48.410;9.054;2023-01-26T03:29:29;96523.25;;;0.77;100.00
2397;BME280;1209;48.410;9.054;2023-01-26T03:31:54;96519.66;;;0.80;100.00
2397;BME280;1209;48.410;9.054;2023-01-26T03:34:20;96512.22;;;0.88;100.00
2397;BME280;1209;48.410;9.054;2023-01-26T03:36:47;96510.13;;;0.93;100.00
2397;BME280;1209;48.410;9.054;2023-01-26T03:39:12;96507.19;;;0.86;100.00
2397;BME280;1209;48.410;9.054;2023-01-26T03:41:57;96503.78;;;0.86;100.00
2397;BME280;1209;48.410;9.054;2023-01-26T03:44:41;96506.09;;;0.78;100.00
2397;BME280;1209;48.410;9.054;2023-01-26T03:47:25;96507.13;;;0.75;100.00
2397;BME280;1209;48.410;9.054;2023-01-26T03:50:10;96508.50;;;0.68;100.00
2397;BME280;1209;48.410;9.054;2023-01-26T03:52:54;96499.47;;;0.62;100.00
2397;BME280;1209;48.410;9.054;2023-01-26T03:55:38;96500.22;;;0.52;100.00
2397;BME280;1209;48.410;9.054;2023-01-26T03:58:22;96505.34;;;0.52;100.00
2397;BME280;1209;48.410;9.054;2023-01-26T04:00:50;96505.56;;;0.49;100.00
2397;BME280;1209;48.410;9.054;2023-01-26T04:03:16;96502.38;;;0.45;100.00
2397;BME280;1209;48.410;9.054;2023-01-26T04:05:59;96493.94;;;0.43;100.00
2397;BME280;1209;48.410;9.054;2023-01-26T04:08:45;96499.09;;;0.43;100.00
2397;BME280;1209;48.410;9.054;2023-01-26T04:11:12;96494.47;;;0.48;100.00
2397;BME280;1209;48.410;9.054;2023-01-26T04:13:37;96497.34;;;0.44;100.00
2397;BME280;1209;48.410;9.054;2023-01-26T04:16:21;96494.28;;;0.39;100.00
2397;BME280;1209;48.410;9.054;2023-01-26T04:19:05;96496.22;;;0.48;100.00
2397;BME280;1209;48.410;9.054;2023-01-26T04:21:49;96501.47;;;0.34;100.00
2397;BME280;1209;48.410;9.054;2023-01-26T04:24:14;96492.31;;;0.42;100.00
2397;BME280;1209;48.410;9.054;2023-01-26T04:26:41;96490.78;;;0.40;100.00
2397;BME280;1209;48.410;9.054;2023-01-26T04:29:11;96497.56;;;0.41;100.00
2397;BME280;1209;48.410;9.054;2023-01-26T04:31:37;96485.63;;;0.40;100.00
2397;BME280;1209;48.410;9.054;2023-01-26T04:34:05;96481.75;;;0.34;100.00
2397;BME280;1209;48.410;9.054;2023-01-26T04:36:31;96482.75;;;0.44;100.00
2397;BME280;1209;48.410;9.054;2023-01-26T04:38:56;96479.25;;;0.45;100.00
2397;BME280;1209;48.410;9.054;2023-01-26T04:41:22;96486.56;;;0.51;100.00
2397;BME280;1209;48.410;9.054;2023-01-26T04:43:47;96479.13;;;0.59;100.00
2397;BME280;1209;48.410;9.054;2023-01-26T04:46:13;96481.19;;;0.54;100.00
2397;BME280;1209;48.410;9.054;2023-01-26T04:48:38;96476.34;;;0.62;100.00
2397;BME280;1209;48.410;9.054;2023-01-26T04:51:06;96473.56;;;0.66;100.00
2397;BME280;1209;48.410;9.054;2023-01-26T04:53:32;96460.00;;;0.63;100.00
2397;BME280;1209;48.410;9.054;2023-01-26T04:55:58;96458.34;;;0.62;100.00
2397;BME280;1209;48.410;9.054;2023-01-26T04:58:24;96468.97;;;0.58;100.00
2397;BME280;1209;48.410;9.054;2023-01-26T05:00:54;96453.53;;;0.58;100.00
2397;BME280;1209;48.410;9.054;2023-01-26T05:03:20;96460.88;;;0.51;100.00
2397;BME280;1209;48.410;9.054;2023-01-26T05:05:51;96460.78;;;0.40;100.00
2397;BME280;1209;48.410;9.054;2023-01-26T05:08:18;96461.53;;;0.29;100.00
2397;BME280;1209;48.410;9.054;2023-01-26T05:10:44;96457.94;;;0.32;100.00
2397;BME280;1209;48.410;9.054;2023-01-26T05:13:10;96458.75;;;0.32;100.00
2397;BME280;1209;48.410;9.054;2023-01-26T05:15:36;96469.50;;;0.38;100.00
2397;BME280;1209;48.410;9.054;2023-01-26T05:18:02;96464.91;;;0.30;100.00
2397;BME280;1209;48.410;9.054;2023-01-26T05:20:28;96470.34;;;0.38;100.00
2397;BME280;1209;48.410;9.054;2023-01-26T05:22:54;96470.06;;;0.30;100.00
2397;BME280;1209;48.410;9.054;2023-01-26T05:25:19;96474.97;;;0.33;100.00
2397;BME280;1209;48.410;9.054;2023-01-26T05:27:45;96473.13;;;0.35;100.00
2397;BME280;1209;48.410;9.054;2023-01-26T05:30:11;96463.81;;;0.21;100.00
2397;BME280;1209;48.410;9.054;2023-01-26T05:32:36;96464.41;;;0.25;100.00
2397;BME280;1209;48.410;9.054;2023-01-26T05:35:03;96468.59;;;0.39;100.00
2397;BME280;1209;48.410;9.054;2023-01-26T05:37:28;96472.25;;;0.60;100.00
2397;BME280;1209;48.410;9.054;2023-01-26T05:39:54;96467.38;;;0.68;100.00
2397;BME280;1209;48.410;9.054;2023-01-26T05:42:19;96471.47;;;0.71;100.00
2397;BME280;1209;48.410;9.054;2023-01-26T05:44:45;96477.75;;;0.67;100.00
2397;BME280;1209;48.410;9.054;2023-01-26T05:47:10;96477.72;;;0.79;100.00
2397;BME280;1209;48.410;9.054;2023-01-26T05:49:36;96471.16;;;0.75;100.00
2397;BME280;1209;48.410;9.054;2023-01-26T05:52:09;96481.88;;;0.69;100.00
2397;BME280;1209;48.410;9.054;2023-01-26T05:54:35;96483.66;;;0.56;100.00
2397;BME280;1209;48.410;9.054;2023-01-26T05:57:01;96484.09;;;0.37;100.00
2397;BME280;1209;48.410;9.054;2023-01-26T05:59:27;96479.34;;;0.44;100.00
2397;BME280;1209;48.410;9.054;2023-01-26T06:01:52;96478.25;;;0.35;100.00
2397;BME280;1209;48.410;9.054;2023-01-26T06:04:18;96480.50;;;0.52;100.00
2397;BME280;1209;48.410;9.054;2023-01-26T06:06:43;96473.94;;;0.72;100.00
2397;BME280;1209;48.410;9.054;2023-01-26T06:09:09;96479.19;;;0.71;100.00
2397;BME280;1209;48.410;9.054;2023-01-26T06:11:35;96486.63;;;0.62;100.00
2397;BME280;1209;48.410;9.054;2023-01-26T06:14:00;96477.50;;;0.46;100.00
2397;BME280;1209;48.410;9.054;2023-01-26T06:16:25;96485.22;;;0.46;100.00
2397;BME280;1209;48.410;9.054;2023-01-26T06:18:51;96474.63;;;0.50;100.00
2397;BME280;1209;48.410;9.054;2023-01-26T06:21:16;96476.63;;;0.34;100.00
2397;BME280;1209;48.410;9.054;2023-01-26T06:23:41;96472.41;;;0.33;100.00
2397;BME280;1209;48.410;9.054;2023-01-26T06:26:07;96480.44;;;0.28;100.00
2397;BME280;1209;48.410;9.054;2023-01-26T06:28:32;96475.34;;;0.52;100.00
2397;BME280;1209;48.410;9.054;2023-01-26T06:31:02;96481.72;;;0.47;100.00
2397;BME280;1209;48.410;9.054;2023-01-26T06:33:27;96477.38;;;0.60;100.00
2397;BME280;1209;48.410;9.054;2023-01-26T06:35:53;96483.72;;;0.67;100.00
2397;BME280;1209;48.410;9.054;2023-01-26T06:38:20;96482.47;;;0.73;100.00
2397;BME280;1209;48.410;9.054;2023-01-26T06:40:45;96482.63;;;0.58;100.00
2397;BME280;1209;48.410;9.054;2023-01-26T06:43:11;96470.66;;;0.70;100.00
2397;BME280;1209;48.410;9.054;2023-01-26T06:45:36;96472.06;;;0.74;100.00
2397;BME280;1209;48.410;9.054;2023-01-26T06:48:01;96470.59;;;0.83;100.00
2397;BME280;1209;48.410;9.054;2023-01-26T06:50:31;96472.69;;;0.78;100.00
2397;BME280;1209;48.410;9.054;2023-01-26T06:52:59;96468.91;;;0.71;100.00
2397;BME280;1209;48.410;9.054;2023-01-26T06:55:36;96472.69;;;0.78;100.00
2397;BME280;1209;48.410;9.054;2023-01-26T06:58:02;96472.34;;;0.58;100.00
2397;BME280;1209;48.410;9.054;2023-01-26T07:00:27;96467.56;;;0.41;100.00
2397;BME280;1209;48.410;9.054;2023-01-26T07:02:52;96465.25;;;0.25;100.00
2397;BME280;1209;48.410;9.054;2023-01-26T07:05:18;96478.47;;;0.32;100.00
2397;BME280;1209;48.410;9.054;2023-01-26T07:07:43;96476.78;;;0.44;100.00
2397;BME280;1209;48.410;9.054;2023-01-26T07:10:09;96466.13;;;0.50;100.00
2397;BME280;1209;48.410;9.054;2023-01-26T07:12:43;96469.72;;;0.71;100.00
2397;BME280;1209;48.410;9.054;2023-01-26T07:15:10;96466.94;;;0.74;100.00
2397;BME280;1209;48.410;9.054;2023-01-26T07:17:36;96474.47;;;0.65;100.00
2397;BME280;1209;48.410;9.054;2023-01-26T07:20:02;96474.53;;;0.39;100.00
2397;BME280;1209;48.410;9.054;2023-01-26T07:22:27;96483.16;;;0.51;100.00
2397;BME280;1209;48.410;9.054;2023-01-26T07:24:53;96477.16;;;0.26;100.00
2397;BME280;1209;48.410;9.054;2023-01-26T07:27:18;96487.22;;;0.29;100.00
2397;BME280;1209;48.410;9.054;2023-01-26T07:29:43;96481.25;;;0.29;100.00
2397;BME280;1209;48.410;9.054;2023-01-26T07:32:10;96483.69;;;0.43;100.00
2397;BME280;1209;48.410;9.054;2023-01-26T07:34:35;96487.78;;;0.46;100.00
2397;BME280;1209;48.410;9.054;2023-01-26T07:37:01;96480.50;;;0.52;100.00
2397;BME280;1209;48.410;9.054;2023-01-26T07:39:26;96481.63;;;0.36;100.00
2397;BME280;1209;48.410;9.054;2023-01-26T07:41:51;96483.06;;;0.40;100.00
2397;BME280;1209;48.410;9.054;2023-01-26T07:44:17;96495.41;;;0.35;100.00
2397;BME280;1209;48.410;9.054;2023-01-26T07:46:42;96481.53;;;0.37;100.00
2397;BME280;1209;48.410;9.054;2023-01-26T07:49:07;96480.16;;;0.57;100.00
2397;BME280;1209;48.410;9.054;2023-01-26T07:51:35;96484.22;;;0.72;100.00
2397;BME280;1209;48.410;9.054;2023-01-26T07:54:01;96488.53;;;0.72;100.00
2397;BME280;1209;48.410;9.054;2023-01-26T07:56:26;96473.13;;;0.72;100.00
2397;BME280;1209;48.410;9.054;2023-01-26T07:58:53;96489.63;;;0.56;100.00
2397;BME280;1209;48.410;9.054;2023-01-26T08:01:18;96479.34;;;0.80;100.00
2397;BME280;1209;48.410;9.054;2023-01-26T08:03:44;96485.47;;;0.67;100.00
2397;BME280;1209;48.410;9.054;2023-01-26T08:06:10;96483.41;;;0.72;100.00
2397;BME280;1209;48.410;9.054;2023-01-26T08:08:36;96484.53;;;0.91;100.00
2397;BME280;1209;48.410;9.054;2023-01-26T08:11:04;96482.91;;;0.90;100.00
2397;BME280;1209;48.410;9.054;2023-01-26T08:13:29;96478.78;;;0.88;100.00
2397;BME280;1209;48.410;9.054;2023-01-26T08:15:59;96485.25;;;0.70;100.00
2397;BME280;1209;48.410;9.054;2023-01-26T08:18:25;96479.22;;;0.82;100.00
2397;BME280;1209;48.410;9.054;2023-01-26T08:20:51;96474.88;;;0.95;100.00
2397;BME280;1209;48.410;9.054;2023-01-26T08:23:17;96475.41;;;0.87;100.00
2397;BME280;1209;48.410;9.054;2023-01-26T08:25:43;96482.28;;;0.87;100.00
2397;BME280;1209;48.410;9.054;2023-01-26T08:28:08;96479.34;;;0.80;100.00
2397;BME280;1209;48.410;9.054;2023-01-26T08:30:33;96470.59;;;0.83;100.00
2397;BME280;1209;48.410;9.054;2023-01-26T08:33:00;96472.34;;;0.82;100.00
2397;BME280;1209;48.410;9.054;2023-01-26T08:35:27;96482.19;;;0.88;100.00
2397;BME280;1209;48.410;9.054;2023-01-26T08:37:52;96475.13;;;0.79;100.00
2397;BME280;1209;48.410;9.054;2023-01-26T08:40:17;96481.31;;;0.77;100.00
2397;BME280;1209;48.410;9.054;2023-01-26T08:42:43;96475.56;;;0.49;100.00
2397;BME280;1209;48.410;9.054;2023-01-26T08:45:08;96477.53;;;0.70;100.00
2397;BME280;1209;48.410;9.054;2023-01-26T08:47:34;96480.16;;;0.57;100.00
2397;BME280;1209;48.410;9.054;2023-01-26T08:49:59;96475.34;;;0.76;100.00
2397;BME280;1209;48.410;9.054;2023-01-26T08:52:25;96467.53;;;0.78;100.00
2397;BME280;1209;48.410;9.054;2023-01-26T08:54:51;96473.50;;;0.78;100.00
2397;BME280;1209;48.410;9.054;2023-01-26T08:57:16;96472.56;;;0.79;100.00
2397;BME280;1209;48.410;9.054;2023-01-26T08:59:41;96470.25;;;0.87;100.00
2397;BME280;1209;48.410;9.054;2023-01-26T09:02:08;96474.88;;;0.95;100.00
2397;BME280;1209;48.410;9.054;2023-01-26T09:04:33;96476.72;;;0.93;100.00
2397;BME280;1209;48.410;9.054;2023-01-26T09:06:59;96464.50;;;0.97;100.00
2397;BME280;1209;48.410;9.054;2023-01-26T09:09:24;96460.91;;;0.86;100.00
2397;BME280;1209;48.410;9.054;2023-01-26T09:11:49;96466.63;;;1.03;100.00
2397;BME280;1209;48.410;9.054;2023-01-26T09:14:14;96460.66;;;1.02;100.00
2397;BME280;1209;48.410;9.054;2023-01-26T09:16:40;96457.16;;;1.03;100.00
2397;BME280;1209;48.410;9.054;2023-01-26T09:19:05;96457.59;;;0.97;100.00
2397;BME280;1209;48.410;9.054;2023-01-26T09:21:30;96461.34;;;1.04;100.00
2397;BME280;1209;48.410;9.054;2023-01-26T09:23:56;96460.91;;;1.10;100.00
2397;BME280;1209;48.410;9.054;2023-01-26T09:26:21;96462.56;;;1.11;100.00
2397;BME280;1209;48.410;9.054;2023-01-26T09:28:49;96461.63;;;1.12;100.00
2397;BME280;1209;48.410;9.054;2023-01-26T09:31:15;96462.84;;;0.96;100.00
2397;BME280;1209;48.410;9.054;2023-01-26T09:33:40;96462.03;;;0.95;100.00
2397;BME280;1209;48.410;9.054;2023-01-26T09:36:07;96467.47;;;0.90;100.00
2397;BME280;1209;48.410;9.054;2023-01-26T09:38:33;96457.41;;;0.87;100.00
2397;BME280;1209;48.410;9.054;2023-01-26T09:41:06;96469.22;;;0.90;100.00
2397;BME280;1209;48.410;9.054;2023-01-26T09:43:42;96464.78;;;0.92;100.00
2397;BME280;1209;48.410;9.054;2023-01-26T09:49:08;96462.88;;;0.83;100.00
2397;BME280;1209;48.410;9.054;2023-01-26T09:51:41;96467.91;;;0.84;100.00
2397;BME280;1209;48.410;9.054;2023-01-26T09:56:43;96474.47;;;0.65;100.00
2397;BME280;1209;48.410;9.054;2023-01-26T10:01:53;96465.19;;;0.38;100.00
2397;BME280;1209;48.410;9.054;2023-01-26T10:04:36;96462.53;;;0.40;100.00
2397;BME280;1209;48.410;9.054;2023-01-26T10:07:09;96472.41;;;0.33;100.00
2397;BME280;1209;48.410;9.054;2023-01-26T10:09:37;96469.72;;;0.35;100.00
2397;BME280;1209;48.410;9.054;2023-01-26T10:12:18;96465.09;;;0.40;100.00
2397;BME280;1209;48.410;9.054;2023-01-26T10:15:26;96473.13;;;0.35;100.00
2397;BME280;1209;48.410;9.054;2023-01-26T10:17:42;96471.16;;;0.39;100.00
2397;BME280;1209;48.410;9.054;2023-01-26T10:20:33;96465.63;;;0.32;100.00
2397;BME280;1209;48.410;9.054;2023-01-26T10:23:32;96467.44;;;0.43;100.00
2397;BME280;1209;48.410;9.054;2023-01-26T10:26:19;96467.47;;;0.30;100.00
2397;BME280;1209;48.410;9.054;2023-01-26T10:28:45;96470.66;;;0.34;100.00
2397;BME280;1209;48.410;9.054;2023-01-26T10:31:17;96459.06;;;0.28;100.00
2397;BME280;1209;48.410;9.054;2023-01-26T10:33:57;96467.69;;;0.27;100.00
2397;BME280;1209;48.410;9.054;2023-01-26T10:36:24;96466.88;;;0.26;100.00
2397;BME280;1209;48.410;9.054;2023-01-26T10:38:53;96477.16;;;0.26;100.00
2397;BME280;1209;48.410;9.054;2023-01-26T10:44:01;96466.13;;;0.37;100.00
2397;BME280;1209;48.410;9.054;2023-01-26T10:46:40;96465.94;;;0.27;100.00
2397;BME280;1209;48.410;9.054;2023-01-26T10:51:35;96465.09;;;0.40;100.00
2397;BME280;1209;48.410;9.054;2023-01-26T10:54:18;96467.56;;;0.41;100.00
2397;BME280;1209;48.410;9.054;2023-01-26T10:56:46;96472.91;;;0.38;100.00
2397;BME280;1209;48.410;9.054;2023-01-26T10:59:21;96462.59;;;0.14;100.00
2397;BME280;1209;48.410;9.054;2023-01-26T11:07:37;96456.59;;;0.26;100.00
2397;BME280;1209;48.410;9.054;2023-01-26T11:10:29;96455.34;;;0.32;100.00
2397;BME280;1209;48.410;9.054;2023-01-26T11:13:28;96446.75;;;0.20;100.00
2397;BME280;1209;48.410;9.054;2023-01-26T11:16:13;96449.78;;;0.38;100.00
2397;BME280;1209;48.410;9.054;2023-01-26T11:21:29;96449.13;;;0.23;100.00
2397;BME280;1209;48.410;9.054;2023-01-26T11:43:21;96436.16;;;0.25;100.00
2397;BME280;1209;48.410;9.054;2023-01-26T11:46:19;96437.78;;;0.39;100.00
2397;BME280;1209;48.410;9.054;2023-01-26T11:48:59;96431.81;;;0.38;100.00
2397;BME280;1209;48.410;9.054;2023-01-26T11:51:43;96427.06;;;0.45;100.00
2397;BME280;1209;48.410;9.054;2023-01-26T11:57:23;96427.47;;;0.15;100.00
2397;BME280;1209;48.410;9.054;2023-01-26T11:59:56;96431.56;;;0.17;100.00
2397;BME280;1209;48.410;9.054;2023-01-26T12:02:31;96431.78;;;0.14;100.00
2397;BME280;1209;48.410;9.054;2023-01-26T12:05:01;96430.53;;;0.20;100.00
2397;BME280;1209;48.410;9.054;2023-01-26T12:07:35;96429.00;;;0.17;100.00
2397;BME280;1209;48.410;9.054;2023-01-26T12:10:17;96432.50;;;0.16;100.00
2397;BME280;1209;48.410;9.054;2023-01-26T12:12:57;96427.47;;;0.15;100.00
2397;BME280;1209;48.410;9.054;2023-01-26T12:15:27;96421.47;;;0.27;100.00
2397;BME280;1209;48.410;9.054;2023-01-26T12:18:25;96421.41;;;0.16;100.00
2397;BME280;1209;48.410;9.054;2023-01-26T12:21:00;96418.13;;;0.14;100.00
2397;BME280;1209;48.410;9.054;2023-01-26T12:23:35;96411.06;;;0.05;100.00
2397;BME280;1209;48.410;9.054;2023-01-26T12:26:21;96407.97;;;-0.01;100.00
2397;BME280;1209;48.410;9.054;2023-01-26T12:29:05;96398.13;;;0.06;100.00
2397;BME280;1209;48.410;9.054;2023-01-26T12:32:11;96389.63;;;0.06;100.00
2397;BME280;1209;48.410;9.054;2023-01-26T12:34:37;96380.66;;;-0.02;100.00
2397;BME280;1209;48.410;9.054;2023-01-26T12:39:43;96385.19;;;0.08;100.00
2397;BME280;1209;48.410;9.054;2023-01-26T12:42:35;96384.03;;;0.12;100.00
2397;BME280;1209;48.410;9.054;2023-01-26T12:45:09;96378.00;;;0.13;100.00
2397;BME280;1209;48.410;9.054;2023-01-26T12:47:41;96377.41;;;-0.04;100.00
2397;BME280;1209;48.410;9.054;2023-01-26T12:50:28;96378.22;;;-0.03;100.00
2397;BME280;1209;48.410;9.054;2023-01-26T12:53:19;96379.03;;;-0.03;100.00
2397;BME280;1209;48.410;9.054;2023-01-26T12:56:29;96381.31;;;0.02;100.00
2397;BME280;1209;48.410;9.054;2023-01-26T12:58:54;96378.88;;;0.24;100.00
2397;BME280;1209;48.410;9.054;2023-01-26T13:01:23;96379.91;;;0.22;100.00
2397;BME280;1209;48.410;9.054;2023-01-26T13:03:55;96382.03;;;-0.09;100.00
2397;BME280;1209;48.410;9.054;2023-01-26T13:06:23;96377.31;;;-0.15;100.00
2397;BME280;1209;48.410;9.054;2023-01-26T13:09:00;96376.41;;;-0.14;100.00
2397;BME280;1209;48.410;9.054;2023-01-26T13:24:49;96371.47;;;-0.17;100.00
2397;BME280;1209;48.410;9.054;2023-01-26T13:35:22;96371.81;;;-0.21;100.00
2397;BME280;1209;48.410;9.054;2023-01-26T13:37:55;96383.25;;;-0.02;100.00
2397;BME280;1209;48.410;9.054;2023-01-26T13:40:25;96392.41;;;0.03;100.00
2397;BME280;1209;48.410;9.054;2023-01-26T13:43:16;96385.41;;;0.05;100.00
2397;BME280;1209;48.410;9.054;2023-01-26T13:46:06;96379.66;;;0.01;100.00
2397;BME280;1209;48.410;9.054;2023-01-26T13:51:05;96382.66;;;-0.18;100.00
2397;BME280;1209;48.410;9.054;2023-01-26T13:56:02;96384.16;;;-0.03;100.00
2397;BME280;1209;48.410;9.054;2023-01-26T13:58:28;96377.81;;;-0.10;100.00
2397;BME280;1209;48.410;9.054;2023-01-26T14:03:28;96374.03;;;-0.17;100.00
2397;BME280;1209;48.410;9.054;2023-01-26T14:05:58;96374.97;;;-0.18;100.00
2397;BME280;1209;48.410;9.054;2023-01-26T14:08:25;96375.47;;;0.00;100.00
2397;BME280;1209;48.410;9.054;2023-01-26T14:10:51;96376.47;;;-0.03;100.00
2397;BME280;1209;48.410;9.054;2023-01-26T14:13:26;96384.47;;;0.06;100.00
2397;BME280;1209;48.410;9.054;2023-01-26T14:15:58;96387.03;;;0.06;100.00
2397;BME280;1209;48.410;9.054;2023-01-26T14:18:24;96387.78;;;0.31;100.00
2397;BME280;1209;48.410;9.054;2023-01-26T14:20:57;96384.72;;;0.26;100.00
2397;BME280;1209;48.410;9.054;2023-01-26T14:23:27;96386.72;;;0.10;100.00
2397;BME280;1209;48.410;9.054;2023-01-26T14:26:30;96385.19;;;0.08;100.00
2397;BME280;1209;48.410;9.054;2023-01-26T14:28:57;96388.69;;;0.07;100.00
2397;BME280;1209;48.410;9.054;2023-01-26T14:31:25;96385.44;;;-0.21;100.00
2397;BME280;1209;48.410;9.054;2023-01-26T14:33:55;96386.81;;;-0.28;100.00
2397;BME280;1209;48.410;9.054;2023-01-26T14:36:25;96391.50;;;-0.22;100.00
2397;BME280;1209;48.410;9.054;2023-01-26T14:38:53;96386.91;;;-0.29;100.00
2397;BME280;1209;48.410;9.054;2023-01-26T14:41:24;96391.44;;;-0.33;100.00
2397;BME280;1209;48.410;9.054;2023-01-26T14:43:55;96393.06;;;-0.32;100.00
2397;BME280;1209;48.410;9.054;2023-01-26T14:46:24;96383.56;;;-0.06;100.00
2397;BME280;1209;48.410;9.054;2023-01-26T14:49:00;96400.16;;;-0.36;100.00
2397;BME280;1209;48.410;9.054;2023-01-26T14:51:27;96401.47;;;-0.30;100.00
2397;BME280;1209;48.410;9.054;2023-01-26T14:53:59;96403.97;;;-0.41;100.00
2397;BME280;1209;48.410;9.054;2023-01-26T14:56:34;96407.53;;;-0.31;100.00